Huvudsida
METAR-TAF:

METAR-TAF

Flygplatser :

Pisas internationella flygplats

Pisa, Italien

latitud: 43-41N, longitud: 010-23E, höjd: 2 m

Aktuellt väderrapport

Denna rapport gjordes för 30 minuter sedan, klockan 05:15 UTC
Vind 4 kt från sydost
Temperatur 12°C
Fuktighet 94%
Tryck 1020 hPa
Sikt 10 km eller mer
Brutna moln på en höjd av 5000 ft

METAR: LIRP 160515Z 14004KT 9999 BKN050 12/11 Q1020 NOSIG

Tid: 06:45 (05:45 UTC)

Väderprognos

Denna rapport gjordes för 45 minuter sedan, klockan 05:00 UTC
Prognos gäller från 16 kl. 06 UTC till 17 kl. 06 UTC
Vind 5 kt från ost/sydost
Sikt 10 km eller mer
Spridda moln på en höjd av 3000 ft
Brutna moln på en höjd av 5000 ft
Sannolikhet 40% :
Temporärt
från 16 kl. 06 UTC till 16 kl. 24 UTC
Sikt: 5000 m
regn

TAF: LIRP 160500Z 1606/1706 12005KT 9999 SCT030 BKN050 PROB40 TEMPO 1606/1624 5000 RA

Aktuella väderrapporter och prognoser från 4000 flygplatser (METAR- och TAF-rapporter).

De tillgängliga stationerna syns som gula och röda prickar på kartan.

För musen över prickarna för att se namnen på stationerna.

Klicka sedan för att få väderrapporter och prognoser.

För att ändra kartan: Klicka på de gröna knapparna med ett svart kors på för att zooma in; den gröna knappen med ett streck på för att zooma ut; eller på de gröna pilarna för angränsande kartor.


METAR-TAF: